sensor_id;sensor_type;location;lat;lon;timestamp;pressure;altitude;pressure_sealevel;temperature;humidity
28606;BME280;46498;49.968;7.754;2023-02-28T00:00:14;97986.00;;;-1.86;72.04
28606;BME280;46498;49.968;7.754;2023-02-28T00:05:18;97983.00;;;-1.94;72.99
28606;BME280;46498;49.968;7.754;2023-02-28T00:10:22;97983.00;;;-1.88;72.11
28606;BME280;46498;49.968;7.754;2023-02-28T00:15:24;97982.00;;;-1.97;71.95
28606;BME280;46498;49.968;7.754;2023-02-28T00:20:25;97989.00;;;-1.99;72.55
28606;BME280;46498;49.968;7.754;2023-02-28T00:25:25;97978.00;;;-1.99;72.67
28606;BME280;46498;49.968;7.754;2023-02-28T00:30:26;97981.00;;;-1.96;72.76
28606;BME280;46498;49.968;7.754;2023-02-28T00:35:27;97974.00;;;-1.98;72.71
28606;BME280;46498;49.968;7.754;2023-02-28T00:40:29;97980.00;;;-2.05;73.24
28606;BME280;46498;49.968;7.754;2023-02-28T00:45:30;97979.00;;;-2.05;72.96
28606;BME280;46498;49.968;7.754;2023-02-28T00:50:31;97972.00;;;-2.03;73.29
28606;BME280;46498;49.968;7.754;2023-02-28T00:55:32;97975.00;;;-2.01;73.55
28606;BME280;46498;49.968;7.754;2023-02-28T01:00:33;97975.00;;;-2.01;73.80
28606;BME280;46498;49.968;7.754;2023-02-28T01:05:33;97974.00;;;-1.99;74.16
28606;BME280;46498;49.968;7.754;2023-02-28T01:10:34;97974.00;;;-1.94;73.77
28606;BME280;46498;49.968;7.754;2023-02-28T01:15:37;97973.00;;;-1.92;73.95
28606;BME280;46498;49.968;7.754;2023-02-28T01:20:39;97970.00;;;-1.81;73.50
28606;BME280;46498;49.968;7.754;2023-02-28T01:25:40;97967.00;;;-1.89;74.01
28606;BME280;46498;49.968;7.754;2023-02-28T01:30:41;97972.00;;;-1.96;74.84
28606;BME280;46498;49.968;7.754;2023-02-28T01:35:42;97967.00;;;-1.86;73.75
28606;BME280;46498;49.968;7.754;2023-02-28T01:40:43;97962.00;;;-1.86;73.70
28606;BME280;46498;49.968;7.754;2023-02-28T01:45:44;97958.00;;;-1.85;74.20
28606;BME280;46498;49.968;7.754;2023-02-28T01:50:47;97952.00;;;-1.94;74.94
28606;BME280;46498;49.968;7.754;2023-02-28T01:55:50;97953.00;;;-1.85;74.42
28606;BME280;46498;49.968;7.754;2023-02-28T02:00:54;97962.00;;;-1.96;74.60
28606;BME280;46498;49.968;7.754;2023-02-28T02:05:56;97947.00;;;-1.95;74.65
28606;BME280;46498;49.968;7.754;2023-02-28T02:10:59;97945.00;;;-2.17;76.25
28606;BME280;46498;49.968;7.754;2023-02-28T02:23:51;97942.00;;;-2.15;76.66
28606;BME280;46498;49.968;7.754;2023-02-28T02:30:26;97937.00;;;-2.11;76.18
28606;BME280;46498;49.968;7.754;2023-02-28T02:35:37;97927.00;;;-2.22;76.84
28606;BME280;46498;49.968;7.754;2023-02-28T02:41:17;97934.00;;;-2.40;79.67
28606;BME280;46498;49.968;7.754;2023-02-28T02:46:23;97934.00;;;-2.37;80.64
28606;BME280;46498;49.968;7.754;2023-02-28T02:51:26;97934.00;;;-2.35;81.07
28606;BME280;46498;49.968;7.754;2023-02-28T02:56:30;97937.00;;;-2.42;82.84
28606;BME280;46498;49.968;7.754;2023-02-28T03:01:33;97942.00;;;-2.42;83.58
28606;BME280;46498;49.968;7.754;2023-02-28T03:06:36;97935.00;;;-2.35;83.68
28606;BME280;46498;49.968;7.754;2023-02-28T03:11:37;97943.00;;;-2.38;83.85
28606;BME280;46498;49.968;7.754;2023-02-28T03:25:44;97934.00;;;-2.42;84.80
28606;BME280;46498;49.968;7.754;2023-02-28T03:30:51;97931.00;;;-2.31;83.70
28606;BME280;46498;49.968;7.754;2023-02-28T03:35:59;97930.00;;;-2.34;84.26
28606;BME280;46498;49.968;7.754;2023-02-28T03:41:11;97936.00;;;-2.46;85.14
28606;BME280;46498;49.968;7.754;2023-02-28T03:46:17;97933.00;;;-2.51;85.41
28606;BME280;46498;49.968;7.754;2023-02-28T03:51:23;97935.00;;;-2.57;85.09
28606;BME280;46498;49.968;7.754;2023-02-28T03:56:35;97932.00;;;-2.60;84.95
28606;BME280;46498;49.968;7.754;2023-02-28T04:01:43;97940.00;;;-2.47;83.51
28606;BME280;46498;49.968;7.754;2023-02-28T04:06:45;97935.00;;;-2.60;83.77
28606;BME280;46498;49.968;7.754;2023-02-28T04:11:49;97945.00;;;-2.40;82.83
28606;BME280;46498;49.968;7.754;2023-02-28T04:16:52;97942.00;;;-2.34;82.60
28606;BME280;46498;49.968;7.754;2023-02-28T04:21:53;97935.00;;;-2.43;84.78
28606;BME280;46498;49.968;7.754;2023-02-28T04:26:56;97941.00;;;-2.51;86.95
28606;BME280;46498;49.968;7.754;2023-02-28T04:31:58;97936.00;;;-2.59;87.66
28606;BME280;46498;49.968;7.754;2023-02-28T04:36:59;97936.00;;;-2.66;87.64
28606;BME280;46498;49.968;7.754;2023-02-28T04:42:14;97931.00;;;-2.76;88.35
28606;BME280;46498;49.968;7.754;2023-02-28T04:47:15;97929.00;;;-2.74;88.60
28606;BME280;46498;49.968;7.754;2023-02-28T04:52:17;97934.00;;;-2.83;89.76
28606;BME280;46498;49.968;7.754;2023-02-28T04:57:18;97926.00;;;-2.93;90.08
28606;BME280;46498;49.968;7.754;2023-02-28T05:02:18;97932.00;;;-3.11;90.34
28606;BME280;46498;49.968;7.754;2023-02-28T05:07:21;97942.00;;;-3.03;89.71
28606;BME280;46498;49.968;7.754;2023-02-28T05:12:22;97931.00;;;-2.91;88.68
28606;BME280;46498;49.968;7.754;2023-02-28T05:17:23;97937.00;;;-2.99;88.28
28606;BME280;46498;49.968;7.754;2023-02-28T05:22:24;97946.00;;;-3.05;88.18
28606;BME280;46498;49.968;7.754;2023-02-28T05:27:25;97946.00;;;-3.14;87.63
28606;BME280;46498;49.968;7.754;2023-02-28T05:32:26;97953.00;;;-3.09;87.11
28606;BME280;46498;49.968;7.754;2023-02-28T05:37:27;97954.00;;;-3.22;87.52
28606;BME280;46498;49.968;7.754;2023-02-28T05:42:28;97951.00;;;-3.17;87.50
28606;BME280;46498;49.968;7.754;2023-02-28T05:47:28;97945.00;;;-3.21;87.86
28606;BME280;46498;49.968;7.754;2023-02-28T05:52:29;97948.00;;;-3.19;87.76
28606;BME280;46498;49.968;7.754;2023-02-28T05:57:30;97951.00;;;-3.14;87.47
28606;BME280;46498;49.968;7.754;2023-02-28T06:02:31;97953.00;;;-3.16;87.59
28606;BME280;46498;49.968;7.754;2023-02-28T06:07:32;97948.00;;;-3.07;87.08
28606;BME280;46498;49.968;7.754;2023-02-28T06:12:33;97948.00;;;-3.09;86.63
28606;BME280;46498;49.968;7.754;2023-02-28T06:17:33;97950.00;;;-3.16;87.01
28606;BME280;46498;49.968;7.754;2023-02-28T06:22:36;97958.00;;;-3.21;87.60
28606;BME280;46498;49.968;7.754;2023-02-28T06:27:37;97963.00;;;-3.16;87.54
28606;BME280;46498;49.968;7.754;2023-02-28T06:32:38;97963.00;;;-3.01;87.00
28606;BME280;46498;49.968;7.754;2023-02-28T06:37:40;97969.00;;;-2.94;85.92
28606;BME280;46498;49.968;7.754;2023-02-28T06:42:42;97970.00;;;-2.87;85.99
28606;BME280;46498;49.968;7.754;2023-02-28T06:47:43;97972.00;;;-2.68;85.26
28606;BME280;46498;49.968;7.754;2023-02-28T06:52:44;97978.00;;;-2.53;83.85
28606;BME280;46498;49.968;7.754;2023-02-28T06:57:45;97980.00;;;-2.20;80.98
28606;BME280;46498;49.968;7.754;2023-02-28T07:02:46;97981.00;;;-2.11;78.71
28606;BME280;46498;49.968;7.754;2023-02-28T07:07:47;97983.00;;;-1.91;75.49
28606;BME280;46498;49.968;7.754;2023-02-28T07:12:49;97988.00;;;-1.76;73.42
28606;BME280;46498;49.968;7.754;2023-02-28T07:17:50;97987.00;;;-1.72;73.22
28606;BME280;46498;49.968;7.754;2023-02-28T07:22:51;97989.00;;;-1.82;70.66
28606;BME280;46498;49.968;7.754;2023-02-28T07:27:57;97993.00;;;-1.90;70.59
28606;BME280;46498;49.968;7.754;2023-02-28T07:32:59;97990.00;;;-1.85;69.58
28606;BME280;46498;49.968;7.754;2023-02-28T07:38:01;97999.00;;;-1.68;66.56
28606;BME280;46498;49.968;7.754;2023-02-28T07:43:03;97999.00;;;-1.42;64.41
28606;BME280;46498;49.968;7.754;2023-02-28T07:48:04;97995.00;;;-1.13;62.74
28606;BME280;46498;49.968;7.754;2023-02-28T07:53:05;97993.00;;;-0.80;59.82
28606;BME280;46498;49.968;7.754;2023-02-28T07:58:06;97995.00;;;-0.58;58.13
28606;BME280;46498;49.968;7.754;2023-02-28T08:03:11;97995.00;;;-0.47;55.99
28606;BME280;46498;49.968;7.754;2023-02-28T08:08:12;97998.00;;;-0.80;55.01
28606;BME280;46498;49.968;7.754;2023-02-28T08:13:13;98000.00;;;-0.59;55.99
28606;BME280;46498;49.968;7.754;2023-02-28T08:18:14;98000.00;;;-0.31;57.66
28606;BME280;46498;49.968;7.754;2023-02-28T08:23:15;97998.00;;;-0.40;56.43
28606;BME280;46498;49.968;7.754;2023-02-28T08:28:16;97993.00;;;-0.52;55.69
28606;BME280;46498;49.968;7.754;2023-02-28T08:33:17;98006.00;;;-0.35;54.77
28606;BME280;46498;49.968;7.754;2023-02-28T08:38:17;98007.00;;;-0.40;54.04
28606;BME280;46498;49.968;7.754;2023-02-28T08:43:18;98010.00;;;-0.73;52.99
28606;BME280;46498;49.968;7.754;2023-02-28T08:48:19;98013.00;;;-0.64;54.09
28606;BME280;46498;49.968;7.754;2023-02-28T08:53:20;98003.00;;;-0.55;54.52
28606;BME280;46498;49.968;7.754;2023-02-28T08:58:21;98010.00;;;-0.68;54.43
28606;BME280;46498;49.968;7.754;2023-02-28T09:03:22;98015.00;;;-0.81;56.93
28606;BME280;46498;49.968;7.754;2023-02-28T09:08:28;98021.00;;;-0.73;57.67
28606;BME280;46498;49.968;7.754;2023-02-28T09:13:29;98015.00;;;-0.88;58.60
28606;BME280;46498;49.968;7.754;2023-02-28T09:18:30;98007.00;;;-0.86;58.93
28606;BME280;46498;49.968;7.754;2023-02-28T09:23:31;98011.00;;;-0.71;58.30
28606;BME280;46498;49.968;7.754;2023-02-28T09:28:32;98011.00;;;-0.74;58.63
28606;BME280;46498;49.968;7.754;2023-02-28T09:33:33;98008.00;;;-1.00;59.18
28606;BME280;46498;49.968;7.754;2023-02-28T09:38:34;98022.00;;;-0.67;60.33
28606;BME280;46498;49.968;7.754;2023-02-28T09:43:39;98025.00;;;-0.82;60.60
28606;BME280;46498;49.968;7.754;2023-02-28T09:48:44;98011.00;;;-0.40;60.22
28606;BME280;46498;49.968;7.754;2023-02-28T09:53:46;98013.00;;;-0.20;60.40
28606;BME280;46498;49.968;7.754;2023-02-28T09:59:04;98016.00;;;-0.17;60.00
28606;BME280;46498;49.968;7.754;2023-02-28T10:04:33;98016.00;;;0.05;59.88
28606;BME280;46498;49.968;7.754;2023-02-28T10:09:37;98032.00;;;0.12;57.12
28606;BME280;46498;49.968;7.754;2023-02-28T10:14:39;98021.00;;;0.47;59.15
28606;BME280;46498;49.968;7.754;2023-02-28T10:20:10;98024.00;;;0.97;57.87
28606;BME280;46498;49.968;7.754;2023-02-28T10:25:22;98026.00;;;1.15;56.75
28606;BME280;46498;49.968;7.754;2023-02-28T10:30:23;98020.00;;;1.43;52.75
28606;BME280;46498;49.968;7.754;2023-02-28T10:35:26;98027.00;;;1.00;52.01
28606;BME280;46498;49.968;7.754;2023-02-28T10:40:33;98030.00;;;1.46;54.45
28606;BME280;46498;49.968;7.754;2023-02-28T10:45:36;98037.00;;;1.08;51.77
28606;BME280;46498;49.968;7.754;2023-02-28T10:57:50;98018.00;;;0.93;52.10
28606;BME280;46498;49.968;7.754;2023-02-28T11:02:51;98011.00;;;1.29;51.80
28606;BME280;46498;49.968;7.754;2023-02-28T11:07:59;98015.00;;;1.35;51.24
28606;BME280;46498;49.968;7.754;2023-02-28T11:13:05;98024.00;;;0.86;50.85
28606;BME280;46498;49.968;7.754;2023-02-28T11:18:21;98011.00;;;2.09;51.81
28606;BME280;46498;49.968;7.754;2023-02-28T11:23:25;98012.00;;;2.01;51.39
28606;BME280;46498;49.968;7.754;2023-02-28T11:28:33;98003.00;;;1.70;50.03
28606;BME280;46498;49.968;7.754;2023-02-28T11:34:24;98006.00;;;1.38;50.58
28606;BME280;46498;49.968;7.754;2023-02-28T11:39:27;98000.00;;;1.85;50.37
28606;BME280;46498;49.968;7.754;2023-02-28T11:45:03;98002.00;;;1.17;51.92
28606;BME280;46498;49.968;7.754;2023-02-28T11:52:04;98004.00;;;0.55;51.95
28606;BME280;46498;49.968;7.754;2023-02-28T12:06:38;98001.00;;;2.33;49.77
28606;BME280;46498;49.968;7.754;2023-02-28T12:11:49;97999.00;;;1.74;49.29
28606;BME280;46498;49.968;7.754;2023-02-28T12:30:17;97999.00;;;0.95;51.14
28606;BME280;46498;49.968;7.754;2023-02-28T12:35:35;97980.00;;;1.98;48.54
28606;BME280;46498;49.968;7.754;2023-02-28T12:40:44;97989.00;;;1.90;48.66
28606;BME280;46498;49.968;7.754;2023-02-28T12:45:57;97986.00;;;2.26;48.22
28606;BME280;46498;49.968;7.754;2023-02-28T12:51:00;97990.00;;;2.59;48.33
28606;BME280;46498;49.968;7.754;2023-02-28T12:56:15;97985.00;;;2.21;48.55
28606;BME280;46498;49.968;7.754;2023-02-28T13:13:06;97981.00;;;2.76;49.31
28606;BME280;46498;49.968;7.754;2023-02-28T13:18:28;97980.00;;;2.39;47.51
28606;BME280;46498;49.968;7.754;2023-02-28T13:24:04;97975.00;;;2.74;47.88
28606;BME280;46498;49.968;7.754;2023-02-28T13:29:40;97963.00;;;2.50;47.09
28606;BME280;46498;49.968;7.754;2023-02-28T13:36:23;97970.00;;;3.18;46.21
28606;BME280;46498;49.968;7.754;2023-02-28T13:41:44;97972.00;;;2.98;45.78
28606;BME280;46498;49.968;7.754;2023-02-28T13:47:51;97980.00;;;2.90;45.84
28606;BME280;46498;49.968;7.754;2023-02-28T13:53:24;97961.00;;;4.16;45.10
28606;BME280;46498;49.968;7.754;2023-02-28T13:58:41;97962.00;;;3.58;44.03
28606;BME280;46498;49.968;7.754;2023-02-28T14:06:54;97969.00;;;3.30;45.19
28606;BME280;46498;49.968;7.754;2023-02-28T14:11:56;97951.00;;;3.31;45.67
28606;BME280;46498;49.968;7.754;2023-02-28T14:16:57;97961.00;;;2.80;45.21
28606;BME280;46498;49.968;7.754;2023-02-28T14:22:58;97950.00;;;3.25;45.09
28606;BME280;46498;49.968;7.754;2023-02-28T14:28:13;97957.00;;;3.83;44.83
28606;BME280;46498;49.968;7.754;2023-02-28T14:36:01;97970.00;;;2.73;44.39
28606;BME280;46498;49.968;7.754;2023-02-28T14:41:12;97955.00;;;3.06;45.03
28606;BME280;46498;49.968;7.754;2023-02-28T14:46:17;97956.00;;;3.05;45.16
28606;BME280;46498;49.968;7.754;2023-02-28T14:51:23;97949.00;;;2.65;45.44
28606;BME280;46498;49.968;7.754;2023-02-28T14:56:29;97935.00;;;2.89;46.00
28606;BME280;46498;49.968;7.754;2023-02-28T15:01:31;97936.00;;;2.75;45.47
28606;BME280;46498;49.968;7.754;2023-02-28T15:06:34;97932.00;;;3.05;46.33
28606;BME280;46498;49.968;7.754;2023-02-28T15:11:35;97935.00;;;2.82;46.49
28606;BME280;46498;49.968;7.754;2023-02-28T15:16:39;97938.00;;;2.53;47.41
28606;BME280;46498;49.968;7.754;2023-02-28T15:21:44;97940.00;;;2.44;46.84
28606;BME280;46498;49.968;7.754;2023-02-28T15:26:53;97943.00;;;2.60;45.89
28606;BME280;46498;49.968;7.754;2023-02-28T15:32:04;97938.00;;;2.71;45.97
28606;BME280;46498;49.968;7.754;2023-02-28T15:37:29;97940.00;;;2.97;47.29
28606;BME280;46498;49.968;7.754;2023-02-28T15:42:31;97942.00;;;2.80;47.89
28606;BME280;46498;49.968;7.754;2023-02-28T15:47:32;97948.00;;;2.39;47.00
28606;BME280;46498;49.968;7.754;2023-02-28T15:52:38;97948.00;;;2.45;47.54
28606;BME280;46498;49.968;7.754;2023-02-28T15:57:41;97945.00;;;2.23;48.53
28606;BME280;46498;49.968;7.754;2023-02-28T16:02:44;97954.00;;;2.27;48.07
28606;BME280;46498;49.968;7.754;2023-02-28T16:07:45;97952.00;;;2.35;48.53
28606;BME280;46498;49.968;7.754;2023-02-28T16:12:55;97953.00;;;2.30;47.42
28606;BME280;46498;49.968;7.754;2023-02-28T16:17:57;97950.00;;;2.18;48.21
28606;BME280;46498;49.968;7.754;2023-02-28T16:22:58;97955.00;;;2.14;48.66
28606;BME280;46498;49.968;7.754;2023-02-28T16:28:02;97958.00;;;1.92;49.40
28606;BME280;46498;49.968;7.754;2023-02-28T16:33:03;97963.00;;;1.83;50.31
28606;BME280;46498;49.968;7.754;2023-02-28T16:38:05;97964.00;;;1.81;49.74
28606;BME280;46498;49.968;7.754;2023-02-28T16:43:12;97962.00;;;1.85;50.23
28606;BME280;46498;49.968;7.754;2023-02-28T16:48:15;97965.00;;;1.81;50.37
28606;BME280;46498;49.968;7.754;2023-02-28T16:53:16;97971.00;;;1.75;50.36
28606;BME280;46498;49.968;7.754;2023-02-28T16:58:17;97975.00;;;1.72;50.74
28606;BME280;46498;49.968;7.754;2023-02-28T17:03:25;97978.00;;;1.79;50.39
28606;BME280;46498;49.968;7.754;2023-02-28T17:08:34;97970.00;;;1.71;50.64
28606;BME280;46498;49.968;7.754;2023-02-28T17:13:35;97985.00;;;1.69;50.97
28606;BME280;46498;49.968;7.754;2023-02-28T17:18:36;97988.00;;;1.53;51.25
28606;BME280;46498;49.968;7.754;2023-02-28T17:23:37;98001.00;;;1.45;52.11
28606;BME280;46498;49.968;7.754;2023-02-28T17:28:37;98009.00;;;1.25;52.61
28606;BME280;46498;49.968;7.754;2023-02-28T17:33:38;98012.00;;;1.16;52.80
28606;BME280;46498;49.968;7.754;2023-02-28T17:38:39;98017.00;;;1.11;53.44
28606;BME280;46498;49.968;7.754;2023-02-28T17:43:40;98026.00;;;1.11;53.75
28606;BME280;46498;49.968;7.754;2023-02-28T17:48:41;98036.00;;;1.08;53.89
28606;BME280;46498;49.968;7.754;2023-02-28T17:53:43;98035.00;;;1.19;54.12
28606;BME280;46498;49.968;7.754;2023-02-28T17:58:47;98041.00;;;1.14;54.52
28606;BME280;46498;49.968;7.754;2023-02-28T18:03:48;98052.00;;;0.99;55.05
28606;BME280;46498;49.968;7.754;2023-02-28T18:08:50;98052.00;;;0.98;55.51
28606;BME280;46498;49.968;7.754;2023-02-28T18:13:53;98059.00;;;0.85;55.85
28606;BME280;46498;49.968;7.754;2023-02-28T18:18:58;98052.00;;;0.84;56.23
28606;BME280;46498;49.968;7.754;2023-02-28T18:23:59;98046.00;;;0.70;56.62
28606;BME280;46498;49.968;7.754;2023-02-28T18:28:59;98052.00;;;0.62;56.91
28606;BME280;46498;49.968;7.754;2023-02-28T18:34:01;98054.00;;;0.59;56.99
28606;BME280;46498;49.968;7.754;2023-02-28T18:39:02;98049.00;;;0.45;57.66
28606;BME280;46498;49.968;7.754;2023-02-28T18:44:03;98047.00;;;0.37;57.76
28606;BME280;46498;49.968;7.754;2023-02-28T18:49:19;98047.00;;;0.25;58.21
28606;BME280;46498;49.968;7.754;2023-02-28T18:54:20;98051.00;;;0.17;58.84
28606;BME280;46498;49.968;7.754;2023-02-28T18:59:21;98053.00;;;0.08;59.04
28606;BME280;46498;49.968;7.754;2023-02-28T19:04:22;98046.00;;;0.09;59.10
28606;BME280;46498;49.968;7.754;2023-02-28T19:09:23;98048.00;;;0.10;59.07
28606;BME280;46498;49.968;7.754;2023-02-28T19:14:24;98047.00;;;0.13;58.84
28606;BME280;46498;49.968;7.754;2023-02-28T19:19:26;98041.00;;;0.26;58.54
28606;BME280;46498;49.968;7.754;2023-02-28T19:24:27;98045.00;;;0.22;58.93
28606;BME280;46498;49.968;7.754;2023-02-28T19:29:28;98037.00;;;0.27;58.68
28606;BME280;46498;49.968;7.754;2023-02-28T19:34:29;98032.00;;;0.07;58.89
28606;BME280;46498;49.968;7.754;2023-02-28T19:39:31;98034.00;;;0.15;59.05
28606;BME280;46498;49.968;7.754;2023-02-28T19:44:40;98035.00;;;0.15;58.84
28606;BME280;46498;49.968;7.754;2023-02-28T19:49:41;98041.00;;;0.16;59.00
28606;BME280;46498;49.968;7.754;2023-02-28T19:54:42;98034.00;;;0.16;59.07
28606;BME280;46498;49.968;7.754;2023-02-28T19:59:43;98039.00;;;0.13;59.24
28606;BME280;46498;49.968;7.754;2023-02-28T20:04:47;98041.00;;;0.11;59.31
28606;BME280;46498;49.968;7.754;2023-02-28T20:09:49;98042.00;;;0.06;59.93
28606;BME280;46498;49.968;7.754;2023-02-28T20:14:51;98040.00;;;0.02;60.04
28606;BME280;46498;49.968;7.754;2023-02-28T20:19:52;98041.00;;;-0.14;60.67
28606;BME280;46498;49.968;7.754;2023-02-28T20:24:53;98038.00;;;-0.16;61.06
28606;BME280;46498;49.968;7.754;2023-02-28T20:29:54;98042.00;;;-0.17;61.69
28606;BME280;46498;49.968;7.754;2023-02-28T20:34:55;98039.00;;;-0.11;61.70
28606;BME280;46498;49.968;7.754;2023-02-28T20:39:56;98043.00;;;-0.13;61.96
28606;BME280;46498;49.968;7.754;2023-02-28T20:45:00;98029.00;;;-0.20;62.37
28606;BME280;46498;49.968;7.754;2023-02-28T20:50:01;98028.00;;;-0.29;63.13
28606;BME280;46498;49.968;7.754;2023-02-28T20:55:02;98037.00;;;-0.31;63.53
28606;BME280;46498;49.968;7.754;2023-02-28T21:00:05;98029.00;;;-0.33;64.01
28606;BME280;46498;49.968;7.754;2023-02-28T21:05:09;98028.00;;;-0.43;64.54
28606;BME280;46498;49.968;7.754;2023-02-28T21:10:10;98023.00;;;-0.38;64.64
28606;BME280;46498;49.968;7.754;2023-02-28T21:15:11;98022.00;;;-0.38;64.88
28606;BME280;46498;49.968;7.754;2023-02-28T21:20:13;98030.00;;;-0.28;67.81
28606;BME280;46498;49.968;7.754;2023-02-28T21:25:21;98022.00;;;-0.21;64.66
28606;BME280;46498;49.968;7.754;2023-02-28T21:30:22;98020.00;;;-0.33;64.99
28606;BME280;46498;49.968;7.754;2023-02-28T21:35:23;98012.00;;;-0.48;65.71
28606;BME280;46498;49.968;7.754;2023-02-28T21:40:23;98016.00;;;-0.51;66.26
28606;BME280;46498;49.968;7.754;2023-02-28T21:45:24;98014.00;;;-0.37;65.83
28606;BME280;46498;49.968;7.754;2023-02-28T21:50:26;98003.00;;;-0.49;66.26
28606;BME280;46498;49.968;7.754;2023-02-28T21:55:27;98001.00;;;-0.55;66.86
28606;BME280;46498;49.968;7.754;2023-02-28T22:00:28;97991.00;;;-0.63;66.94
28606;BME280;46498;49.968;7.754;2023-02-28T22:05:29;97997.00;;;-0.66;67.74
28606;BME280;46498;49.968;7.754;2023-02-28T22:10:32;97998.00;;;-0.70;68.00
28606;BME280;46498;49.968;7.754;2023-02-28T22:15:36;97998.00;;;-0.69;68.49
28606;BME280;46498;49.968;7.754;2023-02-28T22:20:38;98001.00;;;-0.84;69.36
28606;BME280;46498;49.968;7.754;2023-02-28T22:25:39;98005.00;;;-0.78;69.34
28606;BME280;46498;49.968;7.754;2023-02-28T22:30:40;98015.00;;;-0.70;69.08
28606;BME280;46498;49.968;7.754;2023-02-28T22:35:41;98016.00;;;-0.81;69.93
28606;BME280;46498;49.968;7.754;2023-02-28T22:40:42;98013.00;;;-0.76;69.85
28606;BME280;46498;49.968;7.754;2023-02-28T22:45:43;98007.00;;;-0.78;69.97
28606;BME280;46498;49.968;7.754;2023-02-28T22:50:43;98018.00;;;-0.85;70.66
28606;BME280;46498;49.968;7.754;2023-02-28T22:55:44;98024.00;;;-0.93;71.15
28606;BME280;46498;49.968;7.754;2023-02-28T23:00:53;98021.00;;;-0.95;71.52
28606;BME280;46498;49.968;7.754;2023-02-28T23:05:54;98021.00;;;-0.88;71.36
28606;BME280;46498;49.968;7.754;2023-02-28T23:10:55;98019.00;;;-0.84;71.24
28606;BME280;46498;49.968;7.754;2023-02-28T23:15:56;98023.00;;;-0.90;71.64
28606;BME280;46498;49.968;7.754;2023-02-28T23:20:57;98031.00;;;-0.86;71.34
28606;BME280;46498;49.968;7.754;2023-02-28T23:25:58;98028.00;;;-0.75;70.89
28606;BME280;46498;49.968;7.754;2023-02-28T23:31:02;98033.00;;;-0.90;71.67
28606;BME280;46498;49.968;7.754;2023-02-28T23:36:14;98041.00;;;-0.90;71.76
28606;BME280;46498;49.968;7.754;2023-02-28T23:41:15;98028.00;;;-0.90;71.81
28606;BME280;46498;49.968;7.754;2023-02-28T23:46:17;98023.00;;;-0.73;71.43
28606;BME280;46498;49.968;7.754;2023-02-28T23:51:21;98027.00;;;-0.86;71.72
28606;BME280;46498;49.968;7.754;2023-02-28T23:56:23;98025.00;;;-0.85;72.32
